Terminal Aerodrome Forecast
Issued by NWS

Home | Current Version | Previous Version | Text Only | Print | Product List | Glossary On
Versions: 1 2 3 4 5 6 7 8 9 10 11 12 13 14 15 16 17 18 19 20 21 22
000
FTUS45 KGJT 232320
TAFRIL
TAF
KRIL 232320Z 2400/2424 33015G25KT P6SM SCT080 BKN150
     FM240200 31006KT P6SM SCT090
     FM240500 19004KT P6SM SKC
     FM241300 VRB02KT P6SM FEW250
     FM241900 27010G18KT P6SM BKN200=

USA.gov is the U.S. government's official web portal to all federal, state and local government web resources and services.